Terminal Aerodrome Forecast
Issued by NWS

Home | Current Version | Previous Version | Text Only | Print | Product List | Glossary On
Versions: 1 2 3 4 5 6 7 8 9 10 11 12 13 14 15 16 17 18 19 20 21
000
FTUS43 KBIS 011100
TAFMOT
TAF
KMOT 011131Z 0112/0212 15009KT P6SM FEW300
     FM011600 15012G17KT P6SM SCT300
     FM012300 14007KT P6SM SCT180 BKN250
     FM020400 10005KT P6SM SCT250=

USA.gov is the U.S. government's official web portal to all federal, state and local government web resources and services.